sensor_id;sensor_type;location;lat;lon;timestamp;temperature;humidity
52799;DHT22;38667;42.872;74.622;2023-05-10T00:01:01;14.60;48.60
52799;DHT22;38667;42.872;74.622;2023-05-10T00:03:27;14.50;47.30
52799;DHT22;38667;42.872;74.622;2023-05-10T00:05:53;14.30;47.70
52799;DHT22;38667;42.872;74.622;2023-05-10T00:08:19;14.40;45.10
52799;DHT22;38667;42.872;74.622;2023-05-10T00:10:46;14.60;44.00
52799;DHT22;38667;42.872;74.622;2023-05-10T00:13:14;14.90;42.70
52799;DHT22;38667;42.872;74.622;2023-05-10T00:15:40;15.00;43.50
52799;DHT22;38667;42.872;74.622;2023-05-10T00:18:06;15.00;44.30
52799;DHT22;38667;42.872;74.622;2023-05-10T00:20:33;14.90;44.70
52799;DHT22;38667;42.872;74.622;2023-05-10T00:22:59;14.70;44.90
52799;DHT22;38667;42.872;74.622;2023-05-10T00:25:25;14.60;43.50
52799;DHT22;38667;42.872;74.622;2023-05-10T00:27:52;14.70;42.20
52799;DHT22;38667;42.872;74.622;2023-05-10T00:30:20;14.90;41.80
52799;DHT22;38667;42.872;74.622;2023-05-10T00:32:46;15.00;44.00
52799;DHT22;38667;42.872;74.622;2023-05-10T00:35:12;15.00;45.00
52799;DHT22;38667;42.872;74.622;2023-05-10T00:37:39;15.00;44.90
52799;DHT22;38667;42.872;74.622;2023-05-10T00:40:06;15.00;45.10
52799;DHT22;38667;42.872;74.622;2023-05-10T00:42:33;15.00;45.00
52799;DHT22;38667;42.872;74.622;2023-05-10T00:44:59;15.10;46.40
52799;DHT22;38667;42.872;74.622;2023-05-10T00:47:27;15.10;48.30
52799;DHT22;38667;42.872;74.622;2023-05-10T00:49:54;15.00;48.00
52799;DHT22;38667;42.872;74.622;2023-05-10T00:52:20;15.00;47.60
52799;DHT22;38667;42.872;74.622;2023-05-10T00:54:47;15.10;46.90
52799;DHT22;38667;42.872;74.622;2023-05-10T00:57:13;15.10;46.20
52799;DHT22;38667;42.872;74.622;2023-05-10T00:59:40;15.20;48.30
52799;DHT22;38667;42.872;74.622;2023-05-10T01:02:07;15.20;48.90
52799;DHT22;38667;42.872;74.622;2023-05-10T01:04:35;15.20;49.00
52799;DHT22;38667;42.872;74.622;2023-05-10T01:07:01;15.20;47.90
52799;DHT22;38667;42.872;74.622;2023-05-10T01:09:28;15.30;48.20
52799;DHT22;38667;42.872;74.622;2023-05-10T01:11:54;15.30;48.80
52799;DHT22;38667;42.872;74.622;2023-05-10T01:14:21;15.50;49.70
52799;DHT22;38667;42.872;74.622;2023-05-10T01:16:49;15.60;45.80
52799;DHT22;38667;42.872;74.622;2023-05-10T01:19:20;15.70;46.00
52799;DHT22;38667;42.872;74.622;2023-05-10T01:21:56;15.90;47.90
52799;DHT22;38667;42.872;74.622;2023-05-10T01:24:56;15.90;47.90
52799;DHT22;38667;42.872;74.622;2023-05-10T01:30:50;16.10;47.10
52799;DHT22;38667;42.872;74.622;2023-05-10T01:33:27;16.20;46.40
52799;DHT22;38667;42.872;74.622;2023-05-10T01:36:01;16.40;46.80
52799;DHT22;38667;42.872;74.622;2023-05-10T01:38:36;16.50;47.50
52799;DHT22;38667;42.872;74.622;2023-05-10T01:41:11;16.60;46.10
52799;DHT22;38667;42.872;74.622;2023-05-10T01:43:46;16.80;46.00
52799;DHT22;38667;42.872;74.622;2023-05-10T01:46:17;16.90;46.80
52799;DHT22;38667;42.872;74.622;2023-05-10T01:48:48;17.00;47.00
52799;DHT22;38667;42.872;74.622;2023-05-10T01:51:22;17.20;46.40
52799;DHT22;38667;42.872;74.622;2023-05-10T01:53:49;17.20;45.40
52799;DHT22;38667;42.872;74.622;2023-05-10T01:56:20;17.40;44.80
52799;DHT22;38667;42.872;74.622;2023-05-10T01:58:49;17.50;44.40
52799;DHT22;38667;42.872;74.622;2023-05-10T02:01:16;17.60;43.90
52799;DHT22;38667;42.872;74.622;2023-05-10T02:03:43;17.70;43.80
52799;DHT22;38667;42.872;74.622;2023-05-10T02:06:13;17.80;43.50
52799;DHT22;38667;42.872;74.622;2023-05-10T02:08:40;17.90;43.30
52799;DHT22;38667;42.872;74.622;2023-05-10T02:11:08;18.00;42.90
52799;DHT22;38667;42.872;74.622;2023-05-10T02:13:36;18.10;42.30
52799;DHT22;38667;42.872;74.622;2023-05-10T02:16:03;18.20;42.00
52799;DHT22;38667;42.872;74.622;2023-05-10T02:18:33;18.30;41.60
52799;DHT22;38667;42.872;74.622;2023-05-10T02:21:00;18.50;40.80
52799;DHT22;38667;42.872;74.622;2023-05-10T02:23:29;18.60;40.10
52799;DHT22;38667;42.872;74.622;2023-05-10T02:25:57;18.70;39.50
52799;DHT22;38667;42.872;74.622;2023-05-10T02:28:26;18.80;39.00
52799;DHT22;38667;42.872;74.622;2023-05-10T02:30:53;18.90;38.60
52799;DHT22;38667;42.872;74.622;2023-05-10T02:33:21;19.00;38.40
52799;DHT22;38667;42.872;74.622;2023-05-10T02:35:48;19.10;38.10
52799;DHT22;38667;42.872;74.622;2023-05-10T02:38:16;19.20;37.90
52799;DHT22;38667;42.872;74.622;2023-05-10T02:40:46;19.30;37.70
52799;DHT22;38667;42.872;74.622;2023-05-10T02:43:14;19.50;37.30
52799;DHT22;38667;42.872;74.622;2023-05-10T02:45:43;19.60;36.80
52799;DHT22;38667;42.872;74.622;2023-05-10T02:48:09;19.70;36.10
52799;DHT22;38667;42.872;74.622;2023-05-10T02:50:37;19.80;35.80
52799;DHT22;38667;42.872;74.622;2023-05-10T02:53:10;19.90;35.40
52799;DHT22;38667;42.872;74.622;2023-05-10T02:55:38;20.00;34.90
52799;DHT22;38667;42.872;74.622;2023-05-10T02:58:07;20.10;35.40
52799;DHT22;38667;42.872;74.622;2023-05-10T03:00:34;20.10;34.60
52799;DHT22;38667;42.872;74.622;2023-05-10T03:03:00;20.20;34.60
52799;DHT22;38667;42.872;74.622;2023-05-10T03:05:26;20.30;34.60
52799;DHT22;38667;42.872;74.622;2023-05-10T03:07:53;20.40;34.40
52799;DHT22;38667;42.872;74.622;2023-05-10T03:10:22;20.50;34.00
52799;DHT22;38667;42.872;74.622;2023-05-10T03:13:10;20.60;35.10
52799;DHT22;38667;42.872;74.622;2023-05-10T03:15:47;20.60;34.50
52799;DHT22;38667;42.872;74.622;2023-05-10T03:18:17;20.60;33.60
52799;DHT22;38667;42.872;74.622;2023-05-10T03:20:47;20.80;33.40
52799;DHT22;38667;42.872;74.622;2023-05-10T03:23:21;20.90;33.40
52799;DHT22;38667;42.872;74.622;2023-05-10T03:25:49;20.90;33.40
52799;DHT22;38667;42.872;74.622;2023-05-10T03:28:18;21.00;33.40
52799;DHT22;38667;42.872;74.622;2023-05-10T03:30:45;21.10;34.10
52799;DHT22;38667;42.872;74.622;2023-05-10T03:33:12;21.20;33.10
52799;DHT22;38667;42.872;74.622;2023-05-10T03:35:38;21.30;33.70
52799;DHT22;38667;42.872;74.622;2023-05-10T03:38:04;21.40;33.90
52799;DHT22;38667;42.872;74.622;2023-05-10T03:40:31;21.50;35.00
52799;DHT22;38667;42.872;74.622;2023-05-10T03:42:57;21.60;34.50
52799;DHT22;38667;42.872;74.622;2023-05-10T03:45:25;21.60;34.20
52799;DHT22;38667;42.872;74.622;2023-05-10T03:47:51;21.70;34.40
52799;DHT22;38667;42.872;74.622;2023-05-10T03:50:18;21.80;34.10
52799;DHT22;38667;42.872;74.622;2023-05-10T03:52:44;22.00;30.00
52799;DHT22;38667;42.872;74.622;2023-05-10T03:55:11;22.10;30.60
52799;DHT22;38667;42.872;74.622;2023-05-10T03:57:37;22.20;31.00
52799;DHT22;38667;42.872;74.622;2023-05-10T04:00:04;22.40;31.50
52799;DHT22;38667;42.872;74.622;2023-05-10T04:02:32;22.50;30.70
52799;DHT22;38667;42.872;74.622;2023-05-10T04:04:58;22.80;29.40
52799;DHT22;38667;42.872;74.622;2023-05-10T04:07:24;22.90;28.00
52799;DHT22;38667;42.872;74.622;2023-05-10T04:09:51;23.10;26.20
52799;DHT22;38667;42.872;74.622;2023-05-10T04:12:17;23.20;26.80
52799;DHT22;38667;42.872;74.622;2023-05-10T04:14:43;23.30;27.20
52799;DHT22;38667;42.872;74.622;2023-05-10T04:17:10;23.40;25.90
52799;DHT22;38667;42.872;74.622;2023-05-10T04:19:38;23.50;26.30
52799;DHT22;38667;42.872;74.622;2023-05-10T04:22:04;23.70;26.70
52799;DHT22;38667;42.872;74.622;2023-05-10T04:24:30;23.70;27.30
52799;DHT22;38667;42.872;74.622;2023-05-10T04:26:56;23.70;28.30
52799;DHT22;38667;42.872;74.622;2023-05-10T04:29:23;23.70;26.80
52799;DHT22;38667;42.872;74.622;2023-05-10T04:31:49;23.80;27.40
52799;DHT22;38667;42.872;74.622;2023-05-10T04:34:15;23.90;27.60
52799;DHT22;38667;42.872;74.622;2023-05-10T04:36:43;23.90;28.20
52799;DHT22;38667;42.872;74.622;2023-05-10T04:39:10;24.10;28.60
52799;DHT22;38667;42.872;74.622;2023-05-10T04:41:37;24.10;29.30
52799;DHT22;38667;42.872;74.622;2023-05-10T04:44:04;24.10;29.30
52799;DHT22;38667;42.872;74.622;2023-05-10T04:46:30;24.20;26.60
52799;DHT22;38667;42.872;74.622;2023-05-10T04:48:57;24.30;26.90
52799;DHT22;38667;42.872;74.622;2023-05-10T04:51:23;24.40;25.30
52799;DHT22;38667;42.872;74.622;2023-05-10T04:53:51;24.60;26.10
52799;DHT22;38667;42.872;74.622;2023-05-10T04:56:17;24.60;26.40
52799;DHT22;38667;42.872;74.622;2023-05-10T04:58:43;24.70;24.50
52799;DHT22;38667;42.872;74.622;2023-05-10T05:01:10;24.80;25.70
52799;DHT22;38667;42.872;74.622;2023-05-10T05:03:36;24.70;26.50
52799;DHT22;38667;42.872;74.622;2023-05-10T05:06:03;24.70;25.90
52799;DHT22;38667;42.872;74.622;2023-05-10T05:08:29;24.80;26.90
52799;DHT22;38667;42.872;74.622;2023-05-10T05:10:57;24.80;25.70
52799;DHT22;38667;42.872;74.622;2023-05-10T05:13:23;24.90;25.70
52799;DHT22;38667;42.872;74.622;2023-05-10T05:15:50;25.10;26.20
52799;DHT22;38667;42.872;74.622;2023-05-10T05:18:16;25.20;26.20
52799;DHT22;38667;42.872;74.622;2023-05-10T05:20:42;25.30;26.00
52799;DHT22;38667;42.872;74.622;2023-05-10T05:23:09;25.40;25.70
52799;DHT22;38667;42.872;74.622;2023-05-10T05:25:35;25.40;25.40
52799;DHT22;38667;42.872;74.622;2023-05-10T05:28:03;25.50;25.40
52799;DHT22;38667;42.872;74.622;2023-05-10T05:30:29;25.60;25.10
52799;DHT22;38667;42.872;74.622;2023-05-10T05:32:56;25.80;24.50
52799;DHT22;38667;42.872;74.622;2023-05-10T05:35:22;25.80;23.90
52799;DHT22;38667;42.872;74.622;2023-05-10T05:37:48;26.00;23.70
52799;DHT22;38667;42.872;74.622;2023-05-10T05:40:14;26.10;24.40
52799;DHT22;38667;42.872;74.622;2023-05-10T05:42:41;26.10;24.10
52799;DHT22;38667;42.872;74.622;2023-05-10T05:45:09;26.30;24.00
52799;DHT22;38667;42.872;74.622;2023-05-10T05:47:36;26.50;24.20
52799;DHT22;38667;42.872;74.622;2023-05-10T05:50:02;26.70;24.10
52799;DHT22;38667;42.872;74.622;2023-05-10T05:52:28;27.00;23.30
52799;DHT22;38667;42.872;74.622;2023-05-10T05:54:56;27.40;22.70
52799;DHT22;38667;42.872;74.622;2023-05-10T05:57:22;27.70;22.20
52799;DHT22;38667;42.872;74.622;2023-05-10T05:59:48;28.10;21.90
52799;DHT22;38667;42.872;74.622;2023-05-10T06:02:16;28.20;22.20
52799;DHT22;38667;42.872;74.622;2023-05-10T06:04:42;28.30;21.70
52799;DHT22;38667;42.872;74.622;2023-05-10T06:07:09;28.40;21.40
52799;DHT22;38667;42.872;74.622;2023-05-10T06:09:35;28.40;21.40
52799;DHT22;38667;42.872;74.622;2023-05-10T06:12:01;28.50;20.50
52799;DHT22;38667;42.872;74.622;2023-05-10T06:14:28;28.50;20.90
52799;DHT22;38667;42.872;74.622;2023-05-10T06:16:54;28.50;20.70
52799;DHT22;38667;42.872;74.622;2023-05-10T06:19:22;28.40;20.50
52799;DHT22;38667;42.872;74.622;2023-05-10T06:21:48;28.30;21.10
52799;DHT22;38667;42.872;74.622;2023-05-10T06:24:14;28.20;21.40
52799;DHT22;38667;42.872;74.622;2023-05-10T06:26:41;28.10;21.30
52799;DHT22;38667;42.872;74.622;2023-05-10T06:29:07;28.00;21.60
52799;DHT22;38667;42.872;74.622;2023-05-10T06:31:33;27.90;21.80
52799;DHT22;38667;42.872;74.622;2023-05-10T06:34:00;27.90;21.10
52799;DHT22;38667;42.872;74.622;2023-05-10T06:36:28;27.80;20.70
52799;DHT22;38667;42.872;74.622;2023-05-10T06:38:54;27.80;21.40
52799;DHT22;38667;42.872;74.622;2023-05-10T06:41:20;27.80;20.00
52799;DHT22;38667;42.872;74.622;2023-05-10T06:43:47;27.70;20.30
52799;DHT22;38667;42.872;74.622;2023-05-10T06:46:13;27.70;20.60
52799;DHT22;38667;42.872;74.622;2023-05-10T06:48:39;27.70;20.70
52799;DHT22;38667;42.872;74.622;2023-05-10T06:51:06;27.80;20.30
52799;DHT22;38667;42.872;74.622;2023-05-10T06:53:33;27.90;20.70
52799;DHT22;38667;42.872;74.622;2023-05-10T06:56:00;28.10;21.00
52799;DHT22;38667;42.872;74.622;2023-05-10T06:58:26;28.30;20.50
52799;DHT22;38667;42.872;74.622;2023-05-10T07:00:52;28.40;19.70
52799;DHT22;38667;42.872;74.622;2023-05-10T07:03:19;28.40;20.00
52799;DHT22;38667;42.872;74.622;2023-05-10T07:05:45;28.50;18.40
52799;DHT22;38667;42.872;74.622;2023-05-10T07:08:11;28.50;19.60
52799;DHT22;38667;42.872;74.622;2023-05-10T07:10:39;28.40;20.30
52799;DHT22;38667;42.872;74.622;2023-05-10T07:13:05;28.40;20.80
52799;DHT22;38667;42.872;74.622;2023-05-10T07:15:32;28.40;20.60
52799;DHT22;38667;42.872;74.622;2023-05-10T07:17:58;28.40;20.50
52799;DHT22;38667;42.872;74.622;2023-05-10T07:20:25;28.40;20.00
52799;DHT22;38667;42.872;74.622;2023-05-10T07:22:51;28.50;19.80
52799;DHT22;38667;42.872;74.622;2023-05-10T07:25:17;28.50;19.70
52799;DHT22;38667;42.872;74.622;2023-05-10T07:27:45;28.60;19.40
52799;DHT22;38667;42.872;74.622;2023-05-10T07:30:12;28.70;19.00
52799;DHT22;38667;42.872;74.622;2023-05-10T07:32:39;28.90;18.60
52799;DHT22;38667;42.872;74.622;2023-05-10T07:35:06;29.10;19.40
52799;DHT22;38667;42.872;74.622;2023-05-10T07:37:32;29.10;18.70
52799;DHT22;38667;42.872;74.622;2023-05-10T07:39:58;29.00;18.60
52799;DHT22;38667;42.872;74.622;2023-05-10T07:42:25;28.90;22.50
52799;DHT22;38667;42.872;74.622;2023-05-10T07:44:52;28.60;26.60
52799;DHT22;38667;42.872;74.622;2023-05-10T07:47:19;28.40;27.00
52799;DHT22;38667;42.872;74.622;2023-05-10T07:49:45;28.10;28.70
52799;DHT22;38667;42.872;74.622;2023-05-10T07:52:11;27.90;28.40
52799;DHT22;38667;42.872;74.622;2023-05-10T07:54:37;27.80;28.30
52799;DHT22;38667;42.872;74.622;2023-05-10T07:57:04;27.70;28.10
52799;DHT22;38667;42.872;74.622;2023-05-10T07:59:30;27.60;28.10
52799;DHT22;38667;42.872;74.622;2023-05-10T08:01:58;27.60;28.60
52799;DHT22;38667;42.872;74.622;2023-05-10T08:04:24;27.80;27.90
52799;DHT22;38667;42.872;74.622;2023-05-10T08:06:51;28.00;28.20
52799;DHT22;38667;42.872;74.622;2023-05-10T08:09:17;27.80;28.20
52799;DHT22;38667;42.872;74.622;2023-05-10T08:11:43;27.40;22.40
52799;DHT22;38667;42.872;74.622;2023-05-10T08:14:10;27.70;21.70
52799;DHT22;38667;42.872;74.622;2023-05-10T08:16:36;28.00;22.60
52799;DHT22;38667;42.872;74.622;2023-05-10T08:19:04;27.70;25.90
52799;DHT22;38667;42.872;74.622;2023-05-10T08:21:30;27.50;27.50
52799;DHT22;38667;42.872;74.622;2023-05-10T08:23:56;27.80;25.50
52799;DHT22;38667;42.872;74.622;2023-05-10T08:26:23;28.20;19.90
52799;DHT22;38667;42.872;74.622;2023-05-10T08:28:49;28.80;19.40
52799;DHT22;38667;42.872;74.622;2023-05-10T08:31:15;29.00;22.00
52799;DHT22;38667;42.872;74.622;2023-05-10T08:33:42;28.30;25.80
52799;DHT22;38667;42.872;74.622;2023-05-10T08:36:10;28.00;25.20
52799;DHT22;38667;42.872;74.622;2023-05-10T08:38:37;28.20;24.40
52799;DHT22;38667;42.872;74.622;2023-05-10T08:41:05;28.10;21.80
52799;DHT22;38667;42.872;74.622;2023-05-10T08:43:31;28.40;21.20
52799;DHT22;38667;42.872;74.622;2023-05-10T08:46:00;27.90;25.10
52799;DHT22;38667;42.872;74.622;2023-05-10T08:48:28;27.50;23.60
52799;DHT22;38667;42.872;74.622;2023-05-10T08:50:58;27.20;25.70
52799;DHT22;38667;42.872;74.622;2023-05-10T08:53:27;26.90;24.00
52799;DHT22;38667;42.872;74.622;2023-05-10T08:55:55;27.00;24.30
52799;DHT22;38667;42.872;74.622;2023-05-10T08:58:22;27.00;22.30
52799;DHT22;38667;42.872;74.622;2023-05-10T09:00:49;26.70;22.80
52799;DHT22;38667;42.872;74.622;2023-05-10T09:03:16;26.50;23.10
52799;DHT22;38667;42.872;74.622;2023-05-10T09:05:42;26.30;23.20
52799;DHT22;38667;42.872;74.622;2023-05-10T09:08:09;26.30;23.50
52799;DHT22;38667;42.872;74.622;2023-05-10T09:10:37;26.30;23.30
52799;DHT22;38667;42.872;74.622;2023-05-10T09:13:04;26.20;23.10
52799;DHT22;38667;42.872;74.622;2023-05-10T09:15:31;26.40;23.50
52799;DHT22;38667;42.872;74.622;2023-05-10T09:17:57;27.00;22.10
52799;DHT22;38667;42.872;74.622;2023-05-10T09:20:24;27.00;22.10
52799;DHT22;38667;42.872;74.622;2023-05-10T09:22:50;27.50;19.70
52799;DHT22;38667;42.872;74.622;2023-05-10T09:25:17;28.80;19.20
52799;DHT22;38667;42.872;74.622;2023-05-10T09:27:47;29.40;20.50
52799;DHT22;38667;42.872;74.622;2023-05-10T09:30:16;29.00;19.50
52799;DHT22;38667;42.872;74.622;2023-05-10T09:32:44;28.60;21.20
52799;DHT22;38667;42.872;74.622;2023-05-10T09:35:11;28.20;21.80
52799;DHT22;38667;42.872;74.622;2023-05-10T09:37:39;27.90;21.70
52799;DHT22;38667;42.872;74.622;2023-05-10T09:40:07;27.80;22.20
52799;DHT22;38667;42.872;74.622;2023-05-10T09:42:34;28.00;20.20
52799;DHT22;38667;42.872;74.622;2023-05-10T09:45:03;28.10;21.30
52799;DHT22;38667;42.872;74.622;2023-05-10T09:47:31;27.90;22.50
52799;DHT22;38667;42.872;74.622;2023-05-10T09:49:58;27.50;24.10
52799;DHT22;38667;42.872;74.622;2023-05-10T09:52:24;27.30;23.90
52799;DHT22;38667;42.872;74.622;2023-05-10T09:54:53;26.90;24.80
52799;DHT22;38667;42.872;74.622;2023-05-10T09:57:21;26.60;24.60
52799;DHT22;38667;42.872;74.622;2023-05-10T09:59:48;26.60;24.00
52799;DHT22;38667;42.872;74.622;2023-05-10T10:02:16;26.60;24.90
52799;DHT22;38667;42.872;74.622;2023-05-10T10:04:42;26.50;24.90
52799;DHT22;38667;42.872;74.622;2023-05-10T10:07:09;26.50;24.50
52799;DHT22;38667;42.872;74.622;2023-05-10T10:09:35;26.60;24.90
52799;DHT22;38667;42.872;74.622;2023-05-10T10:12:02;26.60;24.70
52799;DHT22;38667;42.872;74.622;2023-05-10T10:14:29;26.40;25.60
52799;DHT22;38667;42.872;74.622;2023-05-10T10:16:56;26.30;25.60
52799;DHT22;38667;42.872;74.622;2023-05-10T10:19:24;26.10;26.80
52799;DHT22;38667;42.872;74.622;2023-05-10T10:21:50;26.10;25.90
52799;DHT22;38667;42.872;74.622;2023-05-10T10:24:16;26.10;26.30
52799;DHT22;38667;42.872;74.622;2023-05-10T10:26:43;26.20;26.70
52799;DHT22;38667;42.872;74.622;2023-05-10T10:29:20;26.00;27.30
52799;DHT22;38667;42.872;74.622;2023-05-10T10:31:52;25.80;27.60
52799;DHT22;38667;42.872;74.622;2023-05-10T10:34:26;25.60;27.70
52799;DHT22;38667;42.872;74.622;2023-05-10T10:36:53;25.50;26.60
52799;DHT22;38667;42.872;74.622;2023-05-10T10:39:20;25.50;27.20
52799;DHT22;38667;42.872;74.622;2023-05-10T10:41:51;25.40;27.40
52799;DHT22;38667;42.872;74.622;2023-05-10T10:44:34;25.30;27.60
52799;DHT22;38667;42.872;74.622;2023-05-10T10:47:06;25.20;27.90
52799;DHT22;38667;42.872;74.622;2023-05-10T10:49:38;25.20;27.70
52799;DHT22;38667;42.872;74.622;2023-05-10T10:52:15;25.30;27.50
52799;DHT22;38667;42.872;74.622;2023-05-10T10:54:59;25.30;28.40
52799;DHT22;38667;42.872;74.622;2023-05-10T10:57:26;25.20;28.60
52799;DHT22;38667;42.872;74.622;2023-05-10T11:03:03;25.10;28.50
52799;DHT22;38667;42.872;74.622;2023-05-10T11:05:41;25.10;28.30
52799;DHT22;38667;42.872;74.622;2023-05-10T11:08:13;25.00;28.70
52799;DHT22;38667;42.872;74.622;2023-05-10T11:10:48;25.00;27.60
52799;DHT22;38667;42.872;74.622;2023-05-10T11:13:14;25.10;27.90
52799;DHT22;38667;42.872;74.622;2023-05-10T11:15:48;25.00;28.00
52799;DHT22;38667;42.872;74.622;2023-05-10T11:18:18;25.00;27.60
52799;DHT22;38667;42.872;74.622;2023-05-10T11:20:50;25.10;27.40
52799;DHT22;38667;42.872;74.622;2023-05-10T11:23:17;25.20;27.60
52799;DHT22;38667;42.872;74.622;2023-05-10T11:25:43;25.20;27.10
52799;DHT22;38667;42.872;74.622;2023-05-10T11:28:10;25.30;27.00
52799;DHT22;38667;42.872;74.622;2023-05-10T11:30:38;25.30;27.20
52799;DHT22;38667;42.872;74.622;2023-05-10T11:33:05;25.40;27.50
52799;DHT22;38667;42.872;74.622;2023-05-10T11:35:37;25.40;27.50
52799;DHT22;38667;42.872;74.622;2023-05-10T11:38:06;25.40;28.20
52799;DHT22;38667;42.872;74.622;2023-05-10T11:40:32;25.20;27.70
52799;DHT22;38667;42.872;74.622;2023-05-10T11:42:59;25.20;28.60
52799;DHT22;38667;42.872;74.622;2023-05-10T11:45:25;25.00;28.30
52799;DHT22;38667;42.872;74.622;2023-05-10T11:47:52;25.00;28.50
52799;DHT22;38667;42.872;74.622;2023-05-10T11:50:18;25.00;28.60
52799;DHT22;38667;42.872;74.622;2023-05-10T11:52:45;25.00;28.30
52799;DHT22;38667;42.872;74.622;2023-05-10T11:55:12;25.00;28.70
52799;DHT22;38667;42.872;74.622;2023-05-10T11:57:39;24.90;28.70
52799;DHT22;38667;42.872;74.622;2023-05-10T12:00:06;24.90;28.10
52799;DHT22;38667;42.872;74.622;2023-05-10T12:02:33;25.00;28.10
52799;DHT22;38667;42.872;74.622;2023-05-10T12:04:59;25.00;28.30
52799;DHT22;38667;42.872;74.622;2023-05-10T12:07:26;24.90;29.00
52799;DHT22;38667;42.872;74.622;2023-05-10T12:10:09;24.70;29.30
52799;DHT22;38667;42.872;74.622;2023-05-10T12:12:38;24.60;29.10
52799;DHT22;38667;42.872;74.622;2023-05-10T12:15:06;24.70;28.80
52799;DHT22;38667;42.872;74.622;2023-05-10T12:17:37;24.70;28.90
52799;DHT22;38667;42.872;74.622;2023-05-10T12:20:14;24.70;28.30
52799;DHT22;38667;42.872;74.622;2023-05-10T12:22:41;25.10;25.50
52799;DHT22;38667;42.872;74.622;2023-05-10T12:25:10;25.40;24.70
52799;DHT22;38667;42.872;74.622;2023-05-10T12:27:38;25.60;24.50
52799;DHT22;38667;42.872;74.622;2023-05-10T12:30:05;25.80;24.50
52799;DHT22;38667;42.872;74.622;2023-05-10T12:32:38;25.80;24.10
52799;DHT22;38667;42.872;74.622;2023-05-10T12:35:05;25.90;24.10
52799;DHT22;38667;42.872;74.622;2023-05-10T12:37:32;26.00;24.10
52799;DHT22;38667;42.872;74.622;2023-05-10T12:39:58;26.00;23.40
52799;DHT22;38667;42.872;74.622;2023-05-10T12:42:24;26.00;23.70
52799;DHT22;38667;42.872;74.622;2023-05-10T12:44:56;26.10;23.60
52799;DHT22;38667;42.872;74.622;2023-05-10T12:47:23;26.10;23.70
52799;DHT22;38667;42.872;74.622;2023-05-10T12:49:49;26.00;23.80
52799;DHT22;38667;42.872;74.622;2023-05-10T12:52:15;26.00;24.10
52799;DHT22;38667;42.872;74.622;2023-05-10T12:54:42;26.00;24.20
52799;DHT22;38667;42.872;74.622;2023-05-10T12:57:08;25.90;23.70
52799;DHT22;38667;42.872;74.622;2023-05-10T12:59:34;25.90;23.60
52799;DHT22;38667;42.872;74.622;2023-05-10T13:02:02;25.90;23.50
52799;DHT22;38667;42.872;74.622;2023-05-10T13:04:28;25.90;23.90
52799;DHT22;38667;42.872;74.622;2023-05-10T13:06:55;25.90;24.00
52799;DHT22;38667;42.872;74.622;2023-05-10T13:09:21;25.90;24.10
52799;DHT22;38667;42.872;74.622;2023-05-10T13:11:47;25.90;24.00
52799;DHT22;38667;42.872;74.622;2023-05-10T13:14:14;25.80;24.00
52799;DHT22;38667;42.872;74.622;2023-05-10T13:16:41;25.80;24.20
52799;DHT22;38667;42.872;74.622;2023-05-10T13:19:09;25.80;24.30
52799;DHT22;38667;42.872;74.622;2023-05-10T13:21:35;25.80;24.50
52799;DHT22;38667;42.872;74.622;2023-05-10T13:24:01;25.70;24.20
52799;DHT22;38667;42.872;74.622;2023-05-10T13:26:28;25.70;24.10
52799;DHT22;38667;42.872;74.622;2023-05-10T13:28:54;25.70;24.30
52799;DHT22;38667;42.872;74.622;2023-05-10T13:31:20;25.70;24.40
52799;DHT22;38667;42.872;74.622;2023-05-10T13:33:47;25.70;24.30
52799;DHT22;38667;42.872;74.622;2023-05-10T13:36:14;25.60;24.50
52799;DHT22;38667;42.872;74.622;2023-05-10T13:38:41;25.60;24.70
52799;DHT22;38667;42.872;74.622;2023-05-10T13:41:07;25.50;25.00
52799;DHT22;38667;42.872;74.622;2023-05-10T13:43:33;25.50;25.40
52799;DHT22;38667;42.872;74.622;2023-05-10T13:46:00;25.40;25.60
52799;DHT22;38667;42.872;74.622;2023-05-10T13:48:27;25.30;25.60
52799;DHT22;38667;42.872;74.622;2023-05-10T13:50:53;25.30;26.10
52799;DHT22;38667;42.872;74.622;2023-05-10T13:53:21;25.20;26.10
52799;DHT22;38667;42.872;74.622;2023-05-10T13:55:47;25.20;26.50
52799;DHT22;38667;42.872;74.622;2023-05-10T13:58:14;25.10;26.50
52799;DHT22;38667;42.872;74.622;2023-05-10T14:00:40;25.10;26.80
52799;DHT22;38667;42.872;74.622;2023-05-10T14:03:06;25.00;26.70
52799;DHT22;38667;42.872;74.622;2023-05-10T14:05:33;25.00;27.30
52799;DHT22;38667;42.872;74.622;2023-05-10T14:07:59;24.90;27.50
52799;DHT22;38667;42.872;74.622;2023-05-10T14:10:27;24.90;28.00
52799;DHT22;38667;42.872;74.622;2023-05-10T14:12:53;24.70;28.50
52799;DHT22;38667;42.872;74.622;2023-05-10T14:15:20;24.70;28.40
52799;DHT22;38667;42.872;74.622;2023-05-10T14:17:46;24.60;28.40
52799;DHT22;38667;42.872;74.622;2023-05-10T14:20:12;24.60;28.20
52799;DHT22;38667;42.872;74.622;2023-05-10T14:22:39;24.60;27.80
52799;DHT22;38667;42.872;74.622;2023-05-10T14:25:05;24.60;27.40
52799;DHT22;38667;42.872;74.622;2023-05-10T14:27:33;24.60;27.20
52799;DHT22;38667;42.872;74.622;2023-05-10T14:30:00;24.60;26.90
52799;DHT22;38667;42.872;74.622;2023-05-10T14:32:26;24.60;26.80
52799;DHT22;38667;42.872;74.622;2023-05-10T14:34:52;24.60;26.90
52799;DHT22;38667;42.872;74.622;2023-05-10T14:37:19;24.70;26.50
52799;DHT22;38667;42.872;74.622;2023-05-10T14:39:45;24.70;26.00
52799;DHT22;38667;42.872;74.622;2023-05-10T14:42:12;24.80;26.10
52799;DHT22;38667;42.872;74.622;2023-05-10T14:44:40;24.80;25.80
52799;DHT22;38667;42.872;74.622;2023-05-10T14:47:06;24.80;25.70
52799;DHT22;38667;42.872;74.622;2023-05-10T14:49:32;24.80;25.70
52799;DHT22;38667;42.872;74.622;2023-05-10T14:51:59;24.80;25.90
52799;DHT22;38667;42.872;74.622;2023-05-10T14:54:25;24.80;25.80
52799;DHT22;38667;42.872;74.622;2023-05-10T14:56:51;24.70;25.80
52799;DHT22;38667;42.872;74.622;2023-05-10T14:59:18;24.80;25.70
52799;DHT22;38667;42.872;74.622;2023-05-10T15:01:45;24.70;25.90
52799;DHT22;38667;42.872;74.622;2023-05-10T15:04:12;24.70;26.10
52799;DHT22;38667;42.872;74.622;2023-05-10T15:06:38;24.60;26.00
52799;DHT22;38667;42.872;74.622;2023-05-10T15:09:04;24.50;25.90
52799;DHT22;38667;42.872;74.622;2023-05-10T15:11:31;24.40;26.20
52799;DHT22;38667;42.872;74.622;2023-05-10T15:13:57;24.30;26.00
52799;DHT22;38667;42.872;74.622;2023-05-10T15:16:23;24.30;26.70
52799;DHT22;38667;42.872;74.622;2023-05-10T15:18:51;24.20;26.30
52799;DHT22;38667;42.872;74.622;2023-05-10T15:21:21;24.10;26.30
52799;DHT22;38667;42.872;74.622;2023-05-10T15:23:47;24.10;26.60